Kezdőlap
METAR-TAF:

METAR-TAF

Repülőterek :

Brüsszeli repülőtér

Brüsszel, Belgium

földrajzi szélesség: 50-54N, földrajzi hosszúság: 004-32E, magasság: 55 m

Jelenlegi meteorológiai megfigyelések

A jelentés 23 perccel ezelõtt készült, 22:50 UTC
Északkeleti szél 1 kt
Hőmérséklet 20°C
Páratartalom 53%
Légköri nyomás 1015 hPa
Látótávolság 10 km, vagy több
felhőtlen 1500 m magasságban, és nincs gomolyfelhõ

METAR: EBBR 152250Z 04001KT CAVOK 20/10 Q1015 NOSIG

Idő: 01:13 (23:13 UTC)

Előrejelzés

A jelentés 6 órával és 13 perccel ezelõtt készült, 17:00 UTC
Az előrejelzés 15-én 18 óra UTC és 16-én 24 óra UTC között érvényes
Észak-északkeleti szél 4 kt
Látótávolság 10 km, vagy több
Kevés felhő 4500 lábon
Valószínűség 30% :
16-én 17 óra UTC és 16-én 22 óra UTC között ideiglenes
Látótávolság: 3000 m
zivatar, esõ

TAF: EBBR 151700Z 1518/1624 03004KT 9999 FEW045 PROB30 TEMPO 1617/1622 3000 TSRA

Meteorológiai megfigyelések és előrejelzések több, mint 4000 repülőtéren (METAR és TAF jelentéseket).

A térképen piros és sárga pontok jelzik az elérhető meteorológiai állomásokat.

Mozgassa az egeret a pont fölött, hogy megjelenjen az állomás neve.

Azután kattintson az időjárási megfigyelések és előrejelzések megtekintéséhez.

A térkép megváltoztatása: kattintson a fekete keresztel jelölt zöld gombra ráközelítéshez, a vonallal jelölt zöld gombra távolításhoz, vagy a zöld nyilakra a szomszédos térképek eléréséhez.


METAR-TAF: